createdAt,value
2023-03-22T00:00:01.035Z,61.37
2023-03-22T00:02:30.524Z,61.37
2023-03-22T00:04:57.934Z,61.41
2023-03-22T00:07:26.698Z,61.36
2023-03-22T00:09:53.834Z,61.27
2023-03-22T00:12:20.971Z,61.33
2023-03-22T00:14:49.528Z,61.39
2023-03-22T00:17:16.741Z,61.42
2023-03-22T00:19:45.079Z,61.57
2023-03-22T00:22:12.133Z,61.59
2023-03-22T00:24:39.284Z,61.47
2023-03-22T00:27:06.437Z,61.61
2023-03-22T00:29:33.484Z,61.82
2023-03-22T00:32:00.716Z,61.68
2023-03-22T00:34:31.654Z,61.72
2023-03-22T00:36:59.034Z,61.68
2023-03-22T00:39:27.109Z,61.57
2023-03-22T00:41:54.284Z,61.63
2023-03-22T00:44:21.564Z,61.71
2023-03-22T00:46:48.713Z,61.64
2023-03-22T00:49:15.819Z,61.91
2023-03-22T00:51:43.092Z,61.73
2023-03-22T00:54:10.317Z,61.61
2023-03-22T00:56:38.412Z,61.81
2023-03-22T00:59:12.739Z,61.91
2023-03-22T01:01:40.883Z,62.05
2023-03-22T01:04:08.033Z,62.04
2023-03-22T01:06:35.603Z,61.93
2023-03-22T01:09:02.816Z,61.91
2023-03-22T01:11:30.010Z,61.97
2023-03-22T01:13:57.277Z,61.98
2023-03-22T01:16:24.992Z,61.95
2023-03-22T01:18:52.280Z,61.97
2023-03-22T01:21:19.643Z,61.91
2023-03-22T01:23:46.951Z,61.99
2023-03-22T01:26:14.178Z,62.05
2023-03-22T01:28:41.508Z,62.34
2023-03-22T01:31:08.693Z,62.14
2023-03-22T01:33:36.767Z,62.21
2023-03-22T01:36:04.401Z,62.20
2023-03-22T01:38:32.938Z,62.21
2023-03-22T01:41:00.835Z,62.30
2023-03-22T01:43:30.378Z,62.22
2023-03-22T01:45:58.175Z,62.17
2023-03-22T01:48:38.235Z,62.23
2023-03-22T01:51:12.295Z,62.06
2023-03-22T01:53:57.076Z,62.19
2023-03-22T01:56:28.539Z,62.23
2023-03-22T01:58:56.502Z,62.25
2023-03-22T02:01:31.140Z,62.21
2023-03-22T02:04:07.321Z,62.36
2023-03-22T02:06:38.456Z,62.36
2023-03-22T02:09:12.158Z,62.21
2023-03-22T02:11:43.203Z,62.33
2023-03-22T02:14:28.561Z,62.42
2023-03-22T02:17:54.661Z,62.27
2023-03-22T02:20:53.077Z,62.32
2023-03-22T02:23:51.098Z,62.34
2023-03-22T02:26:30.612Z,62.38
2023-03-22T02:29:08.322Z,62.49
2023-03-22T02:31:44.597Z,62.43
2023-03-22T02:34:44.540Z,62.37
2023-03-22T02:37:39.699Z,62.42
2023-03-22T02:40:28.532Z,62.47
2023-03-22T02:43:09.879Z,62.61
2023-03-22T02:45:42.135Z,62.50
2023-03-22T02:48:15.809Z,62.43
2023-03-22T02:50:51.388Z,62.48
2023-03-22T02:53:40.898Z,62.52
2023-03-22T02:56:16.797Z,62.66
2023-03-22T02:58:46.963Z,62.60
2023-03-22T03:01:20.587Z,62.65
2023-03-22T03:03:50.970Z,62.66
2023-03-22T03:06:20.959Z,62.66
2023-03-22T03:08:53.539Z,62.64
2023-03-22T03:11:21.352Z,62.77
2023-03-22T03:13:49.904Z,62.71
2023-03-22T03:16:21.755Z,62.71
2023-03-22T03:19:29.146Z,62.55
2023-03-22T03:22:06.967Z,62.70
2023-03-22T03:24:45.222Z,62.76
2023-03-22T03:27:23.197Z,62.83
2023-03-22T03:30:05.849Z,62.76
2023-03-22T03:32:42.108Z,62.89
2023-03-22T03:35:23.106Z,62.77
2023-03-22T03:38:08.027Z,62.80
2023-03-22T03:40:40.683Z,62.97
2023-03-22T03:43:09.860Z,63.02
2023-03-22T03:45:38.233Z,62.90
2023-03-22T03:48:10.244Z,62.85
2023-03-22T03:50:38.237Z,62.86
2023-03-22T03:53:05.848Z,63.03
2023-03-22T03:55:33.758Z,63.04
2023-03-22T03:58:01.067Z,63.06
2023-03-22T04:00:28.221Z,63.09
2023-03-22T04:03:31.674Z,63.14
2023-03-22T04:06:29.148Z,63.19
2023-03-22T04:09:01.832Z,63.12
2023-03-22T04:11:31.306Z,63.04
2023-03-22T04:14:00.410Z,63.19
2023-03-22T04:16:27.731Z,63.12
2023-03-22T04:18:55.446Z,63.07
2023-03-22T04:21:23.014Z,63.16
2023-03-22T04:23:56.242Z,62.98
2023-03-22T04:26:26.215Z,63.09
2023-03-22T04:29:14.672Z,63.14
2023-03-22T04:31:44.887Z,63.27
2023-03-22T04:34:20.460Z,63.16
2023-03-22T04:37:02.749Z,63.28
2023-03-22T04:39:53.294Z,63.40
2023-03-22T04:42:30.322Z,63.26
2023-03-22T04:45:20.051Z,63.25
2023-03-22T04:47:50.669Z,63.35
2023-03-22T04:50:17.860Z,63.22
2023-03-22T04:52:50.085Z,63.26
2023-03-22T04:55:17.616Z,63.19
2023-03-22T04:57:45.173Z,63.40
2023-03-22T05:00:12.995Z,63.35
2023-03-22T05:02:41.444Z,63.36
2023-03-22T05:05:13.930Z,63.42
2023-03-22T05:07:41.613Z,63.45
2023-03-22T05:10:10.077Z,63.43
2023-03-22T05:12:37.726Z,63.63
2023-03-22T05:15:16.758Z,63.53
2023-03-22T05:17:43.988Z,63.58
2023-03-22T05:20:11.722Z,63.54
2023-03-22T05:22:41.100Z,63.59
2023-03-22T05:25:11.526Z,63.53
2023-03-22T05:27:41.087Z,63.59
2023-03-22T05:30:28.361Z,63.60
2023-03-22T05:33:04.779Z,63.67
2023-03-22T05:35:38.403Z,63.70
2023-03-22T05:38:06.658Z,63.69
2023-03-22T05:40:35.805Z,63.81
2023-03-22T05:43:02.934Z,63.72
2023-03-22T05:45:32.580Z,63.77
2023-03-22T05:48:15.156Z,63.80
2023-03-22T05:50:42.698Z,63.64
2023-03-22T05:53:11.690Z,63.89
2023-03-22T05:56:00.827Z,63.89
2023-03-22T05:58:30.898Z,63.90
2023-03-22T06:01:03.433Z,63.97
2023-03-22T06:03:50.799Z,63.95
2023-03-22T06:06:31.858Z,64.09
2023-03-22T06:09:16.732Z,63.97
2023-03-22T06:11:46.184Z,63.95
2023-03-22T06:14:14.933Z,63.99
2023-03-22T06:17:05.652Z,63.85
2023-03-22T06:19:33.017Z,64.07
2023-03-22T06:22:02.230Z,64.08
2023-03-22T06:24:29.562Z,64.01
2023-03-22T06:26:56.706Z,64.29
2023-03-22T06:29:24.291Z,64.19
2023-03-22T06:31:53.324Z,64.42
2023-03-22T06:34:20.706Z,64.18
2023-03-22T06:36:48.180Z,64.27
2023-03-22T06:39:30.720Z,64.38
2023-03-22T06:41:58.482Z,64.29
2023-03-22T06:44:25.916Z,64.38
2023-03-22T06:46:53.140Z,64.59
2023-03-22T06:49:42.944Z,64.47
2023-03-22T06:52:14.784Z,64.45
2023-03-22T06:54:42.217Z,64.47
2023-03-22T06:57:10.413Z,64.31
2023-03-22T06:59:37.745Z,64.55
2023-03-22T07:02:05.001Z,64.51
2023-03-22T07:04:33.786Z,64.66
2023-03-22T07:07:01.145Z,64.73
2023-03-22T07:09:28.395Z,64.52
2023-03-22T07:11:57.927Z,64.62
2023-03-22T07:14:25.365Z,64.55
2023-03-22T07:17:05.317Z,64.67
2023-03-22T07:19:33.437Z,64.75
2023-03-22T07:22:04.405Z,64.93
2023-03-22T07:24:32.771Z,64.69
2023-03-22T07:27:02.174Z,64.87
2023-03-22T07:29:29.640Z,64.90
2023-03-22T07:31:57.156Z,65.14
2023-03-22T07:34:40.698Z,64.92
2023-03-22T07:37:15.085Z,64.90
2023-03-22T07:39:42.338Z,64.94
2023-03-22T07:42:09.718Z,65.11
2023-03-22T07:44:36.849Z,65.23
2023-03-22T07:47:30.598Z,65.21
2023-03-22T07:50:31.573Z,65.02
2023-03-22T07:53:00.099Z,65.06
2023-03-22T07:55:27.372Z,65.06
2023-03-22T07:57:54.527Z,65.18
2023-03-22T08:00:23.216Z,65.30
2023-03-22T08:02:56.475Z,65.24
2023-03-22T08:05:43.907Z,65.23
2023-03-22T08:08:13.727Z,65.35
2023-03-22T08:10:41.162Z,65.49
2023-03-22T08:13:08.689Z,65.43
2023-03-22T08:15:37.591Z,65.38
2023-03-22T08:18:05.164Z,65.48
2023-03-22T08:20:35.232Z,65.39
2023-03-22T08:23:08.097Z,65.47
2023-03-22T08:25:57.894Z,65.57
2023-03-22T08:28:25.054Z,65.76
2023-03-22T08:30:52.511Z,65.51
2023-03-22T08:33:23.829Z,65.63
2023-03-22T08:35:52.325Z,65.63
2023-03-22T08:38:19.783Z,65.73
2023-03-22T08:40:49.664Z,65.86
2023-03-22T08:43:19.857Z,65.86
2023-03-22T08:45:47.769Z,65.76
2023-03-22T08:48:16.549Z,65.84
2023-03-22T08:51:02.470Z,65.80
2023-03-22T08:53:50.170Z,66.04
2023-03-22T08:56:39.887Z,65.95
2023-03-22T08:59:16.337Z,66.02
2023-03-22T09:01:56.370Z,66.20
2023-03-22T09:04:23.822Z,66.04
2023-03-22T09:06:51.230Z,66.09
2023-03-22T09:09:18.485Z,66.05
2023-03-22T09:11:47.751Z,66.05
2023-03-22T09:14:14.903Z,66.13
2023-03-22T09:16:42.495Z,66.27
2023-03-22T09:19:10.007Z,66.05
2023-03-22T09:21:37.990Z,66.22
2023-03-22T09:24:09.833Z,66.11
2023-03-22T09:26:40.923Z,66.19
2023-03-22T09:29:08.251Z,66.29
2023-03-22T09:31:35.826Z,66.30
2023-03-22T09:34:13.813Z,66.37
2023-03-22T09:36:41.193Z,66.38
2023-03-22T09:39:10.092Z,66.48
2023-03-22T09:41:44.895Z,66.36
2023-03-22T09:44:34.903Z,66.41
2023-03-22T09:47:05.535Z,66.63
2023-03-22T09:49:52.629Z,66.70
2023-03-22T09:52:20.459Z,66.93
2023-03-22T09:54:47.647Z,66.83
2023-03-22T09:57:39.083Z,66.77
2023-03-22T10:00:18.892Z,66.65
2023-03-22T10:02:46.038Z,66.72
2023-03-22T10:05:17.721Z,66.83
2023-03-22T10:08:18.024Z,66.95
2023-03-22T10:10:45.899Z,66.85
2023-03-22T10:13:21.362Z,67.03
2023-03-22T10:15:59.315Z,67.02
2023-03-22T10:18:33.141Z,66.85
2023-03-22T10:21:08.565Z,67.07
2023-03-22T10:23:45.727Z,67.01
2023-03-22T10:26:21.639Z,66.91
2023-03-22T10:29:04.733Z,67.21
2023-03-22T10:31:34.022Z,67.13
2023-03-22T10:34:16.673Z,67.21
2023-03-22T10:36:44.770Z,67.18
2023-03-22T10:39:41.445Z,67.23
2023-03-22T10:42:15.575Z,67.26
2023-03-22T10:44:56.457Z,67.30
2023-03-22T10:47:41.497Z,67.38
2023-03-22T10:50:18.764Z,67.29
2023-03-22T10:52:58.927Z,67.47
2023-03-22T10:55:26.556Z,67.41
2023-03-22T10:58:11.147Z,67.58
2023-03-22T11:00:42.209Z,67.42
2023-03-22T11:03:09.456Z,67.63
2023-03-22T11:05:36.663Z,67.64
2023-03-22T11:08:03.953Z,67.63
2023-03-22T11:10:35.328Z,67.76
2023-03-22T11:13:09.200Z,67.66
2023-03-22T11:15:49.454Z,67.52
2023-03-22T11:18:17.911Z,67.53
2023-03-22T11:21:00.783Z,67.53
2023-03-22T11:23:33.817Z,67.65
2023-03-22T11:26:13.207Z,67.69
2023-03-22T11:28:47.603Z,67.86
2023-03-22T11:31:17.365Z,67.76
2023-03-22T11:34:16.821Z,67.67
2023-03-22T11:36:45.469Z,67.75
2023-03-22T11:39:12.761Z,67.76
2023-03-22T11:41:40.987Z,67.77
2023-03-22T11:44:12.851Z,67.97
2023-03-22T11:46:48.270Z,67.83
2023-03-22T11:49:17.900Z,67.86
2023-03-22T11:51:45.745Z,67.77
2023-03-22T11:54:26.945Z,67.80
2023-03-22T11:56:58.387Z,67.98
2023-03-22T11:59:40.319Z,67.88
2023-03-22T12:02:31.855Z,67.91
2023-03-22T12:05:17.425Z,67.94
2023-03-22T12:07:46.236Z,67.77
2023-03-22T12:10:21.404Z,67.82
2023-03-22T12:13:00.561Z,67.89
2023-03-22T12:15:37.454Z,68.13
2023-03-22T12:18:36.593Z,68.15
2023-03-22T12:21:03.870Z,68.21
2023-03-22T12:23:35.152Z,68.04
2023-03-22T12:26:05.511Z,68.04
2023-03-22T12:28:54.511Z,68.18
2023-03-22T12:31:27.841Z,68.08
2023-03-22T12:33:58.356Z,68.08
2023-03-22T12:36:38.213Z,68.11
2023-03-22T12:39:08.113Z,67.95
2023-03-22T12:41:42.162Z,68.09
2023-03-22T12:44:19.277Z,68.04
2023-03-22T12:46:53.734Z,68.35
2023-03-22T12:49:27.959Z,68.25
2023-03-22T12:52:04.734Z,68.14
2023-03-22T12:54:32.214Z,68.34
2023-03-22T12:56:59.391Z,68.25
2023-03-22T12:59:30.662Z,68.35
2023-03-22T13:02:14.741Z,68.30
2023-03-22T13:04:43.340Z,68.27
2023-03-22T13:07:19.655Z,68.35
2023-03-22T13:09:49.181Z,68.20
2023-03-22T13:12:19.192Z,68.25
2023-03-22T13:14:52.383Z,68.40
2023-03-22T13:17:25.828Z,68.27
2023-03-22T13:20:20.057Z,68.35
2023-03-22T13:22:47.288Z,68.47
2023-03-22T13:25:18.842Z,68.41
2023-03-22T13:27:46.173Z,68.52
2023-03-22T13:30:35.879Z,68.53
2023-03-22T13:33:08.865Z,68.35
2023-03-22T13:35:45.183Z,68.38
2023-03-22T13:38:25.640Z,68.53
2023-03-22T13:40:56.758Z,68.31
2023-03-22T13:43:29.988Z,68.39
2023-03-22T13:46:14.357Z,68.59
2023-03-22T13:48:43.492Z,68.51
2023-03-22T13:51:14.836Z,68.36
2023-03-22T13:53:56.980Z,68.38
2023-03-22T13:56:54.338Z,68.40
2023-03-22T13:59:27.732Z,68.40
2023-03-22T14:02:18.490Z,68.37
2023-03-22T14:05:09.288Z,68.49
2023-03-22T14:08:00.366Z,68.46
2023-03-22T14:10:33.682Z,68.54
2023-03-22T14:13:06.699Z,68.54
2023-03-22T14:15:38.926Z,68.65
2023-03-22T14:18:14.954Z,68.63
2023-03-22T14:20:43.695Z,68.62
